createdAt,value
2022-12-18T00:01:20.930Z,24.90
2022-12-18T00:03:48.486Z,25.77
2022-12-18T00:06:16.027Z,26.53
2022-12-18T00:08:44.557Z,25.67
2022-12-18T00:11:20.549Z,27.37
2022-12-18T00:13:48.011Z,31.90
2022-12-18T00:16:21.402Z,36.87
2022-12-18T00:18:53.794Z,29.83
2022-12-18T00:21:21.482Z,29.93
2022-12-18T00:23:50.247Z,26.57
2022-12-18T00:26:20.968Z,27.70
2022-12-18T00:28:50.358Z,23.63
2022-12-18T00:31:20.229Z,23.40
2022-12-18T00:33:47.561Z,25.30
2022-12-18T00:36:20.447Z,27.60
2022-12-18T00:38:48.691Z,23.23
2022-12-18T00:41:37.904Z,27.17
2022-12-18T00:44:06.637Z,25.17
2022-12-18T00:46:33.656Z,23.63
2022-12-18T00:49:00.749Z,22.30
2022-12-18T00:51:27.884Z,23.87
2022-12-18T00:53:55.384Z,24.37
2022-12-18T00:56:22.590Z,15.97
2022-12-18T00:58:49.963Z,22.73
2022-12-18T01:01:17.745Z,22.37
2022-12-18T01:03:46.389Z,18.37
2022-12-18T01:06:15.192Z,19.73
2022-12-18T01:08:42.229Z,20.80
2022-12-18T01:11:15.858Z,20.43
2022-12-18T01:13:43.407Z,22.03
2022-12-18T01:16:13.043Z,20.10
2022-12-18T01:18:40.180Z,26.80
2022-12-18T01:21:09.056Z,24.40
2022-12-18T01:23:38.447Z,24.27
2022-12-18T01:26:13.827Z,20.30
2022-12-18T01:28:41.255Z,21.57
2022-12-18T01:31:18.156Z,18.80
2022-12-18T01:33:46.082Z,25.17
2022-12-18T01:36:35.408Z,17.63
2022-12-18T01:39:08.667Z,18.30
2022-12-18T01:41:55.435Z,16.35
2022-12-18T01:44:47.388Z,17.30
2022-12-18T01:47:26.582Z,14.93
2022-12-18T01:49:54.859Z,15.40
2022-12-18T01:52:23.200Z,15.57
2022-12-18T01:54:52.656Z,13.53
2022-12-18T01:57:20.284Z,14.80
2022-12-18T01:59:51.979Z,19.07
2022-12-18T02:02:19.066Z,16.53
2022-12-18T02:04:49.529Z,17.27
2022-12-18T02:07:35.903Z,18.77
2022-12-18T02:10:27.393Z,17.23
2022-12-18T02:13:11.565Z,17.10
2022-12-18T02:15:51.197Z,16.70
2022-12-18T02:18:24.710Z,16.07
2022-12-18T02:21:00.737Z,18.13
2022-12-18T02:24:04.444Z,15.63
2022-12-18T02:26:39.048Z,14.73
2022-12-18T02:29:12.875Z,15.97
2022-12-18T02:31:45.247Z,15.10
2022-12-18T02:34:13.651Z,13.10
2022-12-18T02:36:44.817Z,15.80
2022-12-18T02:39:13.944Z,16.47
2022-12-18T02:41:49.517Z,15.20
2022-12-18T02:44:16.538Z,17.07
2022-12-18T02:46:47.566Z,15.83
2022-12-18T02:49:45.292Z,14.33
2022-12-18T02:52:42.828Z,13.97
2022-12-18T02:55:14.607Z,17.73
2022-12-18T02:58:07.812Z,16.93
2022-12-18T03:00:47.786Z,14.27
2022-12-18T03:03:26.000Z,16.50
2022-12-18T03:06:05.773Z,17.37
2022-12-18T03:08:38.333Z,15.60
2022-12-18T03:11:09.903Z,15.43
2022-12-18T03:13:51.942Z,13.33
2022-12-18T03:16:25.579Z,13.30
2022-12-18T03:18:58.984Z,12.18
2022-12-18T03:21:40.163Z,11.38
2022-12-18T03:24:10.498Z,14.60
2022-12-18T03:26:42.324Z,15.40
2022-12-18T03:29:14.664Z,13.87
2022-12-18T03:31:46.496Z,12.97
2022-12-18T03:34:27.968Z,11.83
2022-12-18T03:36:58.242Z,12.13
2022-12-18T03:39:25.997Z,14.73
2022-12-18T03:42:15.680Z,15.20
2022-12-18T03:45:10.840Z,9.67
2022-12-18T03:47:57.548Z,16.93
2022-12-18T03:50:50.561Z,12.17
2022-12-18T03:55:50.882Z,10.57
2022-12-18T03:58:23.845Z,13.13
2022-12-18T04:01:03.262Z,10.23
2022-12-18T04:03:33.425Z,15.13
2022-12-18T04:06:02.579Z,13.17
2022-12-18T04:08:30.826Z,14.43
2022-12-18T04:11:05.365Z,12.70
2022-12-18T04:13:37.141Z,13.43
2022-12-18T04:16:08.229Z,13.73
2022-12-18T04:18:35.938Z,12.03
2022-12-18T04:21:03.578Z,12.53
2022-12-18T04:23:30.570Z,12.80
2022-12-18T04:25:59.619Z,11.20
2022-12-18T04:28:47.262Z,12.07
2022-12-18T04:31:15.948Z,9.70
2022-12-18T04:33:43.045Z,16.60
2022-12-18T04:36:10.789Z,13.70
2022-12-18T04:38:38.312Z,13.87
2022-12-18T04:41:09.271Z,11.37
2022-12-18T04:43:37.888Z,14.77
2022-12-18T04:46:06.979Z,11.33
2022-12-18T04:48:34.455Z,10.43
2022-12-18T04:51:03.062Z,11.30
2022-12-18T04:53:30.069Z,13.93
2022-12-18T04:56:10.211Z,10.67
2022-12-18T04:58:38.656Z,12.63
2022-12-18T05:01:06.408Z,13.60
2022-12-18T05:03:33.255Z,12.27
2022-12-18T05:06:00.738Z,9.70
2022-12-18T05:08:34.036Z,14.17
2022-12-18T05:11:10.243Z,9.90
2022-12-18T05:13:39.413Z,11.60
2022-12-18T05:16:07.878Z,9.47
2022-12-18T05:18:36.119Z,12.37
2022-12-18T05:21:07.363Z,11.97
2022-12-18T05:23:38.477Z,11.30
2022-12-18T05:26:10.434Z,10.67
2022-12-18T05:28:38.041Z,8.97
2022-12-18T05:31:06.650Z,10.47
2022-12-18T05:33:35.593Z,11.30
2022-12-18T05:36:09.995Z,7.87
2022-12-18T05:38:39.779Z,13.33
2022-12-18T05:41:16.540Z,10.70
2022-12-18T05:43:46.986Z,9.73
2022-12-18T05:46:21.824Z,13.80
2022-12-18T05:48:52.017Z,9.13
2022-12-18T05:51:22.477Z,11.47
2022-12-18T05:53:54.836Z,10.77
2022-12-18T05:58:56.145Z,9.90
2022-12-18T06:01:30.150Z,10.65
2022-12-18T06:04:04.161Z,8.97
2022-12-18T06:06:34.050Z,9.83
2022-12-18T06:09:02.440Z,12.83
2022-12-18T06:11:30.099Z,15.93
2022-12-18T06:14:00.270Z,13.93
2022-12-18T06:16:30.103Z,10.70
2022-12-18T06:19:01.093Z,13.20
2022-12-18T06:21:32.015Z,12.83
2022-12-18T06:24:02.254Z,12.00
2022-12-18T06:26:36.825Z,12.23
2022-12-18T06:29:05.820Z,9.47
2022-12-18T06:31:35.097Z,9.83
2022-12-18T06:34:06.842Z,12.70
2022-12-18T06:36:34.459Z,10.23
2022-12-18T06:39:03.766Z,12.80
2022-12-18T06:41:34.296Z,10.23
2022-12-18T06:44:04.278Z,12.83
2022-12-18T06:46:35.656Z,10.20
2022-12-18T06:49:14.724Z,14.50
2022-12-18T06:51:42.055Z,16.47
2022-12-18T06:54:11.615Z,20.47
2022-12-18T06:56:38.606Z,14.93
2022-12-18T06:59:07.349Z,14.73
2022-12-18T07:01:34.549Z,8.50
2022-12-18T07:04:01.755Z,10.80
2022-12-18T07:06:28.748Z,14.13
2022-12-18T07:08:56.255Z,13.73
2022-12-18T07:11:25.345Z,10.00
2022-12-18T07:13:53.684Z,19.30
2022-12-18T07:16:25.345Z,24.47
2022-12-18T07:18:55.004Z,46.20
2022-12-18T07:21:23.269Z,44.27
2022-12-18T07:23:51.179Z,42.77
2022-12-18T07:26:22.378Z,42.63
2022-12-18T07:28:53.979Z,27.20
2022-12-18T07:31:23.540Z,24.52
2022-12-18T07:33:53.826Z,25.67
2022-12-18T07:36:21.169Z,17.20
2022-12-18T07:38:50.644Z,16.43
2022-12-18T07:41:19.873Z,12.63
2022-12-18T07:43:48.028Z,14.40
2022-12-18T07:46:17.251Z,14.83
2022-12-18T07:48:49.308Z,17.07
2022-12-18T07:51:19.679Z,23.17
2022-12-18T07:53:49.759Z,18.23
2022-12-18T07:56:29.055Z,15.17
2022-12-18T07:58:58.253Z,14.77
2022-12-18T08:01:25.951Z,12.03
2022-12-18T08:03:56.084Z,11.50
2022-12-18T08:06:24.350Z,9.13
2022-12-18T08:08:56.587Z,11.70
2022-12-18T08:11:25.536Z,12.23
2022-12-18T08:13:54.118Z,11.63
2022-12-18T08:16:22.455Z,8.20
2022-12-18T08:18:49.892Z,8.80
2022-12-18T08:21:24.204Z,8.20
2022-12-18T08:26:19.895Z,10.83
2022-12-18T08:28:48.493Z,10.83
2022-12-18T08:31:17.118Z,13.40
2022-12-18T08:33:51.383Z,17.30
2022-12-18T08:36:22.224Z,11.00
2022-12-18T08:38:56.421Z,19.20
2022-12-18T08:41:35.231Z,17.33
2022-12-18T08:44:21.019Z,25.57
2022-12-18T08:46:47.928Z,28.77
2022-12-18T08:49:15.035Z,25.13
2022-12-18T08:51:44.979Z,22.77
2022-12-18T08:54:15.243Z,20.70
2022-12-18T08:56:43.213Z,22.53
2022-12-18T08:59:15.817Z,21.97
2022-12-18T09:01:47.975Z,18.20
2022-12-18T09:04:15.712Z,22.10
2022-12-18T09:06:43.788Z,28.30
2022-12-18T09:09:17.225Z,29.10
2022-12-18T09:11:51.979Z,32.03
2022-12-18T09:14:18.910Z,29.20
2022-12-18T09:16:45.916Z,22.00
2022-12-18T09:19:13.011Z,24.50
2022-12-18T09:21:47.808Z,23.20
2022-12-18T09:24:17.483Z,22.40
2022-12-18T09:26:47.786Z,17.97
2022-12-18T09:29:19.174Z,24.73
2022-12-18T09:31:46.837Z,25.30
2022-12-18T09:34:13.864Z,28.00
2022-12-18T09:36:40.769Z,31.10
2022-12-18T09:39:08.955Z,26.17
2022-12-18T09:41:44.324Z,24.70
2022-12-18T09:44:27.891Z,26.87
2022-12-18T09:47:06.723Z,31.15
2022-12-18T09:49:44.614Z,47.90
2022-12-18T09:52:29.455Z,69.73
2022-12-18T09:55:03.362Z,58.67
2022-12-18T09:57:33.847Z,18.13
2022-12-18T10:00:12.710Z,16.13
2022-12-18T10:02:39.788Z,21.03
2022-12-18T10:05:15.582Z,24.40
2022-12-18T10:07:54.459Z,19.33
2022-12-18T10:10:49.942Z,16.83
2022-12-18T10:13:38.831Z,15.17
2022-12-18T10:16:43.681Z,17.50
2022-12-18T10:19:35.666Z,15.60
2022-12-18T10:22:15.304Z,16.17
2022-12-18T10:25:09.190Z,18.37
2022-12-18T10:27:39.234Z,13.03
2022-12-18T10:30:16.128Z,13.23
2022-12-18T10:32:44.165Z,12.17
2022-12-18T10:35:25.552Z,26.23
2022-12-18T10:38:19.476Z,14.90
2022-12-18T10:41:01.324Z,8.67
2022-12-18T10:43:39.633Z,13.83
2022-12-18T10:46:10.669Z,15.57
2022-12-18T10:48:56.614Z,9.80
2022-12-18T10:51:33.797Z,11.57
2022-12-18T10:54:06.423Z,16.00
2022-12-18T10:56:36.981Z,15.07
2022-12-18T10:59:07.752Z,14.30
2022-12-18T11:01:59.285Z,12.83
2022-12-18T11:04:34.449Z,13.60
2022-12-18T11:07:10.894Z,19.37
2022-12-18T11:09:42.648Z,18.48
2022-12-18T11:12:23.735Z,12.95
2022-12-18T11:14:57.455Z,21.00
2022-12-18T11:20:10.498Z,18.60
2022-12-18T11:22:39.454Z,15.98
2022-12-18T11:25:32.404Z,16.08
2022-12-18T11:28:05.876Z,16.60
2022-12-18T11:30:37.885Z,14.20
2022-12-18T11:33:11.476Z,13.10
2022-12-18T11:36:04.956Z,12.65
2022-12-18T11:38:43.713Z,16.63
2022-12-18T11:41:54.752Z,14.30
2022-12-18T11:44:33.976Z,16.00
2022-12-18T11:47:23.451Z,15.07
2022-12-18T11:49:51.827Z,14.45
2022-12-18T11:52:41.577Z,14.48
2022-12-18T11:55:18.890Z,13.13
2022-12-18T11:58:31.320Z,17.27
2022-12-18T12:01:22.130Z,15.23
2022-12-18T12:04:09.463Z,21.40
2022-12-18T12:06:52.037Z,15.80
2022-12-18T12:09:33.335Z,30.60
2022-12-18T12:12:19.123Z,18.88
2022-12-18T12:15:12.885Z,23.92
2022-12-18T12:18:11.286Z,19.27
2022-12-18T12:21:11.346Z,20.60
2022-12-18T12:23:58.126Z,16.38
2022-12-18T12:26:44.222Z,15.70
2022-12-18T12:29:28.567Z,21.10
2022-12-18T12:31:58.591Z,21.67
2022-12-18T12:34:45.143Z,16.30
2022-12-18T12:37:57.020Z,18.17
2022-12-18T12:41:00.529Z,17.98
2022-12-18T12:43:50.561Z,23.10
2022-12-18T12:46:22.323Z,23.13
2022-12-18T12:48:56.396Z,24.35
2022-12-18T12:51:29.963Z,21.58
2022-12-18T12:54:01.303Z,16.10
2022-12-18T12:57:04.304Z,18.17
2022-12-18T12:59:50.686Z,19.15
2022-12-18T13:02:39.369Z,42.38
2022-12-18T13:05:40.902Z,22.00
2022-12-18T13:08:12.172Z,16.92
2022-12-18T13:10:44.390Z,17.98
2022-12-18T13:13:23.752Z,28.48
2022-12-18T13:16:07.707Z,16.08
2022-12-18T13:18:36.764Z,26.63
2022-12-18T13:21:19.209Z,25.25
2022-12-18T13:23:46.781Z,21.65
2022-12-18T13:26:17.519Z,19.98
2022-12-18T13:28:56.594Z,20.60
2022-12-18T13:31:44.532Z,19.55
2022-12-18T13:34:29.499Z,21.35
2022-12-18T13:37:19.595Z,16.65
2022-12-18T13:39:49.040Z,19.85
2022-12-18T13:42:36.315Z,18.55
2022-12-18T13:45:40.133Z,19.38
2022-12-18T13:48:22.322Z,17.50
2022-12-18T13:50:54.483Z,19.15
2022-12-18T13:53:26.146Z,24.67
2022-12-18T13:55:55.991Z,19.27
2022-12-18T13:58:24.291Z,22.30
2022-12-18T14:00:52.347Z,18.02
2022-12-18T14:03:27.412Z,16.55
2022-12-18T14:06:02.582Z,21.50
2022-12-18T14:08:42.826Z,24.25
2022-12-18T14:11:26.681Z,33.00
2022-12-18T14:13:55.857Z,33.50
2022-12-18T14:16:28.572Z,75.10
2022-12-18T14:19:08.444Z,54.70
2022-12-18T14:22:02.492Z,52.00
2022-12-18T14:24:32.614Z,40.50
2022-12-18T14:27:20.778Z,44.05
2022-12-18T14:29:48.104Z,27.45
2022-12-18T14:32:19.552Z,32.13
2022-12-18T14:34:50.183Z,43.22
2022-12-18T14:37:23.922Z,41.47
2022-12-18T14:40:10.984Z,32.65
2022-12-18T14:42:39.588Z,51.28
2022-12-18T14:45:47.244Z,35.97
2022-12-18T14:48:23.400Z,35.35
2022-12-18T14:51:06.775Z,27.30
2022-12-18T14:53:52.186Z,32.25
2022-12-18T14:56:31.882Z,35.78
2022-12-18T14:59:24.189Z,31.50
2022-12-18T15:02:02.471Z,32.80
2022-12-18T15:04:38.491Z,39.35
2022-12-18T15:07:06.253Z,33.45
2022-12-18T15:09:38.236Z,38.25
2022-12-18T15:12:27.280Z,30.63
2022-12-18T15:14:54.895Z,27.15
2022-12-18T15:17:27.650Z,40.33
2022-12-18T15:20:11.766Z,34.53
2022-12-18T15:22:42.858Z,37.78
2022-12-18T15:25:38.584Z,23.98
2022-12-18T15:28:21.647Z,30.75
2022-12-18T15:31:01.070Z,99.93
2022-12-18T15:33:32.784Z,206.90
2022-12-18T15:36:02.382Z,253.27
2022-12-18T15:38:30.652Z,250.95
2022-12-18T15:40:58.118Z,149.50
2022-12-18T15:43:39.272Z,48.45
2022-12-18T15:46:18.878Z,40.28
2022-12-18T15:48:52.815Z,28.05
2022-12-18T15:51:27.034Z,27.52
2022-12-18T15:53:58.632Z,26.25
2022-12-18T15:56:45.790Z,22.80
2022-12-18T15:59:21.604Z,27.48
2022-12-18T16:01:52.031Z,35.50
2022-12-18T16:04:22.233Z,33.72
2022-12-18T16:09:43.832Z,36.65
2022-12-18T16:14:45.788Z,22.10
2022-12-18T16:17:14.212Z,20.05
2022-12-18T16:19:41.398Z,32.78
2022-12-18T16:22:23.748Z,30.45
2022-12-18T16:24:52.537Z,30.23
2022-12-18T16:27:20.094Z,24.07
2022-12-18T16:29:48.374Z,21.48
2022-12-18T16:32:35.468Z,20.27
2022-12-18T16:35:02.533Z,26.38
2022-12-18T16:37:30.166Z,22.73
2022-12-18T16:39:58.265Z,23.07
2022-12-18T16:42:25.445Z,23.48
2022-12-18T16:44:53.943Z,24.90
2022-12-18T16:47:21.660Z,30.05
2022-12-18T16:49:51.888Z,43.37
2022-12-18T16:52:21.039Z,46.95
2022-12-18T16:54:51.666Z,41.90
2022-12-18T16:57:21.076Z,46.15
2022-12-18T16:59:51.185Z,38.28
2022-12-18T17:02:25.606Z,38.55
2022-12-18T17:05:09.632Z,37.42
2022-12-18T17:07:38.866Z,35.50
2022-12-18T17:10:06.294Z,34.93
2022-12-18T17:12:33.176Z,43.88
2022-12-18T17:15:00.119Z,49.33
2022-12-18T17:17:27.082Z,36.00
2022-12-18T17:19:54.031Z,27.30
2022-12-18T17:22:23.489Z,32.13
2022-12-18T17:24:50.877Z,34.13
2022-12-18T17:27:17.822Z,32.63
2022-12-18T17:29:48.024Z,32.97
2022-12-18T17:32:17.729Z,34.43
2022-12-18T17:34:44.708Z,29.73
2022-12-18T17:37:11.589Z,31.47
2022-12-18T17:39:38.671Z,29.47
2022-12-18T17:42:05.675Z,38.33
2022-12-18T17:44:35.804Z,31.53
2022-12-18T17:47:03.140Z,36.00
2022-12-18T17:49:31.167Z,37.42
2022-12-18T17:51:58.056Z,33.57
2022-12-18T17:54:25.127Z,33.15
2022-12-18T17:56:51.990Z,27.33
2022-12-18T17:59:18.956Z,27.63
2022-12-18T18:01:46.576Z,28.95
2022-12-18T18:04:14.960Z,28.90
2022-12-18T18:06:42.015Z,35.70
2022-12-18T18:09:16.332Z,32.90
2022-12-18T18:12:04.065Z,36.73
2022-12-18T18:14:32.171Z,42.17
2022-12-18T18:17:04.059Z,34.90
2022-12-18T18:19:33.268Z,42.35
2022-12-18T18:22:00.882Z,45.30
2022-12-18T18:24:28.167Z,56.70
2022-12-18T18:26:55.704Z,76.57
2022-12-18T18:29:25.412Z,39.57
2022-12-18T18:31:54.884Z,32.13
2022-12-18T18:34:23.977Z,37.57
2022-12-18T18:36:52.316Z,38.33
2022-12-18T18:39:20.646Z,38.57
2022-12-18T18:41:48.681Z,58.67
2022-12-18T18:44:26.380Z,55.80
2022-12-18T18:47:00.134Z,48.83
2022-12-18T18:49:29.228Z,53.00
2022-12-18T18:51:59.558Z,50.27
2022-12-18T18:54:31.303Z,59.40
2022-12-18T18:59:47.965Z,37.97
2022-12-18T19:02:19.631Z,73.78
2022-12-18T19:04:47.214Z,65.63
2022-12-18T19:07:20.325Z,39.22
2022-12-18T19:10:00.019Z,34.10
2022-12-18T19:12:51.263Z,63.57
2022-12-18T19:15:20.664Z,61.90
2022-12-18T19:17:50.068Z,43.67
2022-12-18T19:20:20.216Z,33.23
2022-12-18T19:22:55.111Z,30.73
2022-12-18T19:25:35.733Z,30.93
2022-12-18T19:28:15.349Z,38.97
2022-12-18T19:30:49.549Z,38.00
2022-12-18T19:33:41.647Z,40.03
2022-12-18T19:36:36.401Z,28.53
2022-12-18T19:39:19.236Z,39.60
2022-12-18T19:41:47.693Z,35.70
2022-12-18T19:44:18.272Z,29.63
2022-12-18T19:46:50.610Z,34.23
2022-12-18T19:49:23.230Z,33.67
2022-12-18T19:51:51.066Z,34.53
2022-12-18T19:54:18.509Z,34.30
2022-12-18T19:56:47.906Z,30.23
2022-12-18T19:59:15.410Z,30.77
2022-12-18T20:01:44.059Z,57.07
2022-12-18T20:04:11.145Z,34.17
2022-12-18T20:06:52.684Z,29.50
2022-12-18T20:09:26.300Z,30.53
2022-12-18T20:11:54.982Z,37.40
2022-12-18T20:14:23.373Z,38.50
2022-12-18T20:16:53.019Z,61.03
2022-12-18T20:19:24.888Z,45.17
2022-12-18T20:21:52.367Z,36.53
2022-12-18T20:24:20.513Z,40.80
2022-12-18T20:26:48.616Z,30.80
2022-12-18T20:29:16.043Z,29.67
2022-12-18T20:31:45.984Z,27.70
2022-12-18T20:34:15.136Z,25.52
2022-12-18T20:36:44.049Z,35.63
2022-12-18T20:39:14.420Z,48.70
2022-12-18T20:41:44.849Z,47.33
2022-12-18T20:44:22.860Z,48.10
2022-12-18T20:46:58.288Z,28.95
2022-12-18T20:49:27.469Z,55.35
2022-12-18T20:51:56.600Z,50.50
2022-12-18T20:54:26.458Z,32.38
2022-12-18T20:56:57.577Z,26.95
2022-12-18T20:59:26.202Z,22.27
2022-12-18T21:01:53.637Z,25.02
2022-12-18T21:04:22.138Z,137.43
2022-12-18T21:06:55.708Z,71.43
2022-12-18T21:09:33.265Z,35.33
2022-12-18T21:12:40.373Z,30.10
2022-12-18T21:15:17.279Z,39.25
2022-12-18T21:17:45.459Z,46.15
2022-12-18T21:20:18.267Z,36.53
2022-12-18T21:22:49.575Z,49.75
2022-12-18T21:25:18.977Z,56.13
2022-12-18T21:27:47.302Z,79.67
2022-12-18T21:30:16.472Z,38.80
2022-12-18T21:32:44.366Z,46.53
2022-12-18T21:35:11.979Z,43.53
2022-12-18T21:37:39.342Z,39.33
2022-12-18T21:40:07.887Z,37.63
2022-12-18T21:42:53.657Z,44.47
2022-12-18T21:45:20.593Z,28.15
2022-12-18T21:47:48.776Z,27.02
2022-12-18T21:50:17.500Z,24.02
2022-12-18T21:52:44.469Z,27.10
2022-12-18T21:55:13.489Z,26.00
2022-12-18T21:57:42.943Z,26.42
2022-12-18T22:00:19.029Z,22.83
2022-12-18T22:03:17.087Z,20.55
2022-12-18T22:05:38.057Z,21.08
2022-12-18T22:08:07.031Z,18.50
2022-12-18T22:10:34.914Z,22.17
2022-12-18T22:13:02.506Z,23.95
2022-12-18T22:15:31.113Z,24.13
2022-12-18T22:18:00.063Z,24.02
2022-12-18T22:20:30.388Z,24.73
2022-12-18T22:23:04.215Z,21.60
2022-12-18T22:25:33.518Z,21.93
2022-12-18T22:28:35.710Z,19.80
2022-12-18T22:31:05.369Z,23.27
2022-12-18T22:33:37.839Z,25.75
2022-12-18T22:36:07.754Z,21.50
2022-12-18T22:38:34.951Z,20.20
2022-12-18T22:41:01.972Z,19.15
2022-12-18T22:43:30.069Z,21.10
2022-12-18T22:45:59.235Z,19.60
2022-12-18T22:48:29.207Z,20.70
2022-12-18T22:50:59.513Z,21.65
2022-12-18T22:53:26.761Z,19.15
2022-12-18T22:56:04.380Z,18.33
2022-12-18T22:58:32.325Z,19.33
2022-12-18T23:01:01.858Z,18.05
2022-12-18T23:03:29.214Z,22.63
2022-12-18T23:06:07.646Z,17.52
2022-12-18T23:08:37.220Z,18.75
2022-12-18T23:11:06.504Z,18.45
2022-12-18T23:13:34.876Z,16.83
2022-12-18T23:16:06.678Z,16.60
2022-12-18T23:18:36.286Z,19.58
2022-12-18T23:21:11.253Z,16.55
2022-12-18T23:23:40.552Z,20.88
2022-12-18T23:26:15.342Z,16.65
2022-12-18T23:28:43.598Z,15.20
2022-12-18T23:31:13.240Z,16.20
2022-12-18T23:33:44.363Z,17.90
2022-12-18T23:36:16.144Z,22.80
2022-12-18T23:38:43.711Z,17.73
2022-12-18T23:41:14.585Z,20.45
2022-12-18T23:43:41.733Z,15.10
2022-12-18T23:46:17.232Z,17.73
2022-12-18T23:51:17.375Z,23.38
2022-12-18T23:53:45.215Z,17.15
2022-12-18T23:56:14.114Z,16.45
2022-12-18T23:58:42.495Z,20.75
